createdAt,value
2018-10-05T00:00:45.471Z,82.90
2018-10-05T00:03:13.819Z,83.98
2018-10-05T00:05:42.138Z,84.83
2018-10-05T00:08:10.479Z,85.37
2018-10-05T00:10:38.857Z,84.80
2018-10-05T00:13:07.241Z,84.39
2018-10-05T00:15:35.583Z,83.71
2018-10-05T00:18:04.015Z,83.75
2018-10-05T00:20:32.430Z,84.45
2018-10-05T00:23:00.753Z,83.57
2018-10-05T00:25:29.099Z,84.14
2018-10-05T00:27:57.474Z,83.87
2018-10-05T00:30:25.836Z,83.96
2018-10-05T00:32:54.196Z,83.30
2018-10-05T00:35:22.507Z,83.99
2018-10-05T00:37:50.867Z,84.62
2018-10-05T00:40:19.223Z,84.33
2018-10-05T00:42:47.579Z,84.58
2018-10-05T00:45:15.893Z,84.00
2018-10-05T00:47:44.258Z,83.66
2018-10-05T00:50:12.967Z,84.39
2018-10-05T00:52:41.307Z,84.05
2018-10-05T00:55:09.645Z,84.46
2018-10-05T00:57:37.999Z,84.38
2018-10-05T01:00:06.432Z,84.00
2018-10-05T01:02:34.781Z,83.51
2018-10-05T01:05:03.111Z,83.84
2018-10-05T01:07:31.480Z,83.99
2018-10-05T01:09:59.822Z,83.72
2018-10-05T01:12:28.167Z,83.57
2018-10-05T01:14:56.501Z,83.98
2018-10-05T01:17:24.834Z,83.17
2018-10-05T01:19:53.165Z,83.24
2018-10-05T01:22:21.490Z,83.44
2018-10-05T01:24:49.893Z,83.65
2018-10-05T01:27:18.249Z,83.37
2018-10-05T01:29:46.580Z,83.74
2018-10-05T01:32:15.034Z,83.76
2018-10-05T01:34:43.356Z,83.03
2018-10-05T01:37:11.694Z,83.83
2018-10-05T01:39:40.033Z,84.14
2018-10-05T01:42:08.364Z,83.72
2018-10-05T01:44:36.720Z,83.67
2018-10-05T01:47:05.048Z,83.60
2018-10-05T01:49:33.375Z,83.70
2018-10-05T01:52:01.721Z,84.51
2018-10-05T01:54:30.063Z,84.21
2018-10-05T01:56:58.432Z,84.09
2018-10-05T01:59:26.785Z,83.94
2018-10-05T02:01:55.115Z,84.22
2018-10-05T02:04:23.436Z,84.74
2018-10-05T02:06:51.792Z,84.00
2018-10-05T02:09:20.130Z,83.66
2018-10-05T02:11:48.472Z,83.76
2018-10-05T02:14:16.830Z,83.89
2018-10-05T02:16:45.173Z,84.23
2018-10-05T02:19:13.593Z,83.62
2018-10-05T02:21:41.942Z,84.28
2018-10-05T02:24:10.282Z,84.00
2018-10-05T02:26:38.646Z,84.15
2018-10-05T02:29:07.693Z,84.31
2018-10-05T02:31:36.127Z,84.56
2018-10-05T02:34:04.502Z,83.85
2018-10-05T02:36:32.849Z,83.65
2018-10-05T02:39:01.207Z,84.07
2018-10-05T02:41:29.576Z,83.63
2018-10-05T02:43:57.912Z,83.87
2018-10-05T02:46:26.259Z,83.96
2018-10-05T02:48:54.609Z,84.15
2018-10-05T02:51:22.975Z,83.84
2018-10-05T02:53:51.333Z,83.86
2018-10-05T02:56:19.682Z,84.06
2018-10-05T02:58:48.009Z,84.08
2018-10-05T03:01:27.673Z,83.82
2018-10-05T03:03:56.007Z,83.76
2018-10-05T03:06:24.398Z,84.04
2018-10-05T03:08:52.745Z,83.54
2018-10-05T03:11:21.072Z,83.38
2018-10-05T03:13:49.423Z,83.00
2018-10-05T03:16:17.965Z,82.86
2018-10-05T03:18:46.379Z,83.17
2018-10-05T03:21:14.707Z,83.41
2018-10-05T03:23:43.055Z,83.24
2018-10-05T03:26:11.622Z,82.88
2018-10-05T03:28:39.954Z,82.94
2018-10-05T03:31:08.384Z,82.69
2018-10-05T03:33:36.741Z,82.99
2018-10-05T03:36:05.064Z,82.76
2018-10-05T03:38:33.422Z,82.43
2018-10-05T03:41:01.783Z,82.40
2018-10-05T03:43:30.173Z,82.98
2018-10-05T03:45:58.606Z,82.69
2018-10-05T03:48:27.426Z,82.16
2018-10-05T03:50:55.769Z,82.34
2018-10-05T03:53:24.113Z,82.20
2018-10-05T03:55:52.460Z,82.43
2018-10-05T03:58:20.771Z,82.74
2018-10-05T04:00:49.118Z,82.48
2018-10-05T04:03:17.457Z,82.65
2018-10-05T04:05:45.837Z,82.34
2018-10-05T04:08:14.220Z,82.11
2018-10-05T04:10:42.561Z,81.65
2018-10-05T04:13:10.880Z,81.98
2018-10-05T04:15:39.228Z,81.60
2018-10-05T04:18:07.649Z,82.05
2018-10-05T04:20:36.019Z,81.73
2018-10-05T04:23:04.455Z,80.96
2018-10-05T04:25:32.804Z,81.54
2018-10-05T04:28:01.153Z,81.46
2018-10-05T04:30:29.494Z,81.30
2018-10-05T04:32:57.840Z,81.29
2018-10-05T04:35:27.204Z,81.56
2018-10-05T04:37:55.607Z,81.25
2018-10-05T04:40:23.944Z,80.91
2018-10-05T04:42:52.322Z,80.73
2018-10-05T04:45:20.680Z,80.82
2018-10-05T04:47:49.032Z,80.71
2018-10-05T04:50:17.399Z,80.67
2018-10-05T04:52:45.811Z,80.82
2018-10-05T04:55:14.156Z,80.67
2018-10-05T04:57:42.527Z,80.82
2018-10-05T05:00:10.881Z,80.29
2018-10-05T05:02:39.207Z,80.42
2018-10-05T05:05:07.555Z,80.48
2018-10-05T05:07:35.895Z,80.88
2018-10-05T05:10:04.558Z,80.51
2018-10-05T05:12:33.153Z,80.21
2018-10-05T05:15:01.748Z,80.12
2018-10-05T05:17:30.084Z,80.29
2018-10-05T05:19:58.433Z,79.78
2018-10-05T05:22:26.771Z,80.38
2018-10-05T05:24:55.267Z,80.13
2018-10-05T05:27:23.641Z,80.25
2018-10-05T05:29:51.978Z,80.13
2018-10-05T05:32:20.346Z,80.40
2018-10-05T05:34:48.797Z,80.10
2018-10-05T05:37:17.132Z,80.43
2018-10-05T05:39:45.447Z,80.28
2018-10-05T05:42:13.846Z,80.47
2018-10-05T05:44:42.169Z,80.05
2018-10-05T05:47:10.504Z,80.18
2018-10-05T05:49:38.906Z,79.75
2018-10-05T05:52:07.835Z,80.23
2018-10-05T05:54:36.214Z,80.05
2018-10-05T05:57:04.621Z,79.97
2018-10-05T05:59:32.989Z,79.87
2018-10-05T06:02:01.381Z,79.78
2018-10-05T06:04:29.713Z,79.44
2018-10-05T06:06:58.100Z,79.91
2018-10-05T06:09:26.440Z,79.60
2018-10-05T06:11:54.784Z,79.85
2018-10-05T06:14:23.125Z,79.53
2018-10-05T06:16:51.441Z,79.59
2018-10-05T06:19:19.767Z,79.51
2018-10-05T06:21:48.155Z,79.08
2018-10-05T06:24:16.460Z,79.37
2018-10-05T06:26:44.794Z,78.75
2018-10-05T06:29:13.672Z,79.02
2018-10-05T06:31:42.026Z,78.87
2018-10-05T06:34:10.373Z,79.19
2018-10-05T06:36:38.714Z,78.62
2018-10-05T06:39:08.230Z,78.36
2018-10-05T06:41:36.600Z,78.09
2018-10-05T06:44:04.967Z,78.16
2018-10-05T06:46:33.304Z,78.11
2018-10-05T06:49:01.659Z,78.32
2018-10-05T06:51:29.989Z,78.21
2018-10-05T06:53:58.321Z,78.25
2018-10-05T06:56:26.637Z,78.00
2018-10-05T06:58:54.988Z,77.97
2018-10-05T07:01:23.424Z,77.74
2018-10-05T07:03:51.697Z,77.42
2018-10-05T07:06:20.065Z,77.44
2018-10-05T07:08:48.411Z,77.81
2018-10-05T07:13:58.828Z,76.87
2018-10-05T07:16:27.180Z,76.98
2018-10-05T07:18:55.493Z,76.87
2018-10-05T07:21:23.971Z,76.94
2018-10-05T07:23:52.216Z,76.74
2018-10-05T07:26:20.556Z,76.36
2018-10-05T07:28:48.939Z,76.19
2018-10-05T07:31:17.278Z,74.56
2018-10-05T07:33:45.619Z,73.86
2018-10-05T07:36:13.944Z,74.58
2018-10-05T07:38:42.289Z,74.09
2018-10-05T07:41:11.714Z,72.49
2018-10-05T07:43:40.707Z,72.75
2018-10-05T07:46:09.864Z,72.28
2018-10-05T07:48:38.436Z,66.93
2018-10-05T07:51:06.988Z,68.04
2018-10-05T07:53:35.486Z,70.86
2018-10-05T07:56:03.848Z,69.87
2018-10-05T07:58:33.413Z,67.08
2018-10-05T08:01:01.866Z,67.76
2018-10-05T08:03:30.202Z,65.54
2018-10-05T08:05:58.657Z,65.69
2018-10-05T08:08:27.101Z,63.79
2018-10-05T08:10:55.621Z,64.52
2018-10-05T08:13:24.954Z,62.98
2018-10-05T08:15:53.334Z,63.36
2018-10-05T08:18:21.712Z,63.38
2018-10-05T08:20:50.065Z,64.10
2018-10-05T08:23:18.405Z,62.70
2018-10-05T08:25:46.738Z,61.41
2018-10-05T08:28:15.161Z,61.26
2018-10-05T08:30:43.485Z,58.63
2018-10-05T08:33:11.954Z,56.79
2018-10-05T08:35:40.424Z,56.99
2018-10-05T08:38:08.785Z,56.79
2018-10-05T08:40:37.093Z,59.48
2018-10-05T08:43:05.432Z,56.95
2018-10-05T08:45:33.768Z,55.11
2018-10-05T08:48:02.156Z,56.16
2018-10-05T08:50:30.471Z,53.15
2018-10-05T08:52:58.804Z,57.33
2018-10-05T08:55:27.129Z,55.62
2018-10-05T08:57:55.508Z,52.82
2018-10-05T09:00:23.867Z,51.87
2018-10-05T09:02:52.191Z,52.26
2018-10-05T09:05:20.524Z,53.14
2018-10-05T09:07:48.889Z,49.49
2018-10-05T09:10:17.225Z,50.15
2018-10-05T09:12:45.579Z,49.76
2018-10-05T09:15:13.912Z,51.94
2018-10-05T09:17:42.295Z,53.63
2018-10-05T09:20:10.641Z,54.14
2018-10-05T09:22:38.964Z,52.82
2018-10-05T09:25:07.292Z,52.24
2018-10-05T09:27:35.616Z,51.61
2018-10-05T09:30:04.029Z,52.85
2018-10-05T09:32:32.374Z,46.36
2018-10-05T09:35:00.724Z,52.78
2018-10-05T09:37:29.100Z,50.52
2018-10-05T09:39:57.499Z,47.29
2018-10-05T09:42:25.847Z,52.52
2018-10-05T09:44:54.209Z,49.67
2018-10-05T09:47:22.536Z,49.76
2018-10-05T09:49:50.882Z,49.89
2018-10-05T09:52:19.237Z,46.63
2018-10-05T09:54:47.546Z,47.25
2018-10-05T09:57:15.894Z,49.40
2018-10-05T09:59:44.266Z,46.57
2018-10-05T10:02:18.821Z,47.05
2018-10-05T10:04:47.212Z,44.29
2018-10-05T10:07:15.581Z,48.66
2018-10-05T10:09:43.901Z,46.08
2018-10-05T10:12:12.258Z,45.98
2018-10-05T10:14:40.589Z,46.95
2018-10-05T10:17:08.899Z,45.69
2018-10-05T10:19:37.245Z,40.93
2018-10-05T10:22:05.580Z,44.00
2018-10-05T10:24:33.938Z,41.93
2018-10-05T10:27:02.334Z,38.94
2018-10-05T10:29:30.653Z,42.08
2018-10-05T10:31:58.960Z,39.74
2018-10-05T10:34:27.373Z,38.33
2018-10-05T10:36:55.660Z,38.81
2018-10-05T10:39:23.970Z,38.78
2018-10-05T10:41:52.278Z,38.00
2018-10-05T10:44:20.632Z,38.62
2018-10-05T10:46:49.002Z,39.77
2018-10-05T10:49:17.382Z,38.93
2018-10-05T10:51:45.707Z,39.71
2018-10-05T10:54:14.164Z,40.10
2018-10-05T10:56:42.407Z,39.73
2018-10-05T10:59:10.759Z,39.71
2018-10-05T11:01:39.124Z,40.19
2018-10-05T11:04:07.546Z,40.24
2018-10-05T11:06:35.837Z,41.14
2018-10-05T11:09:05.059Z,41.35
2018-10-05T11:11:33.402Z,41.61
2018-10-05T11:14:01.792Z,41.05
2018-10-05T11:16:30.140Z,42.51
2018-10-05T11:18:58.482Z,42.59
2018-10-05T11:21:26.833Z,43.44
2018-10-05T11:23:55.479Z,42.38
2018-10-05T11:26:23.536Z,43.42
2018-10-05T11:28:51.848Z,44.55
2018-10-05T11:31:20.225Z,43.58
2018-10-05T11:33:48.561Z,44.01
2018-10-05T11:36:17.512Z,43.56
2018-10-05T11:38:45.877Z,45.32
2018-10-05T11:41:14.241Z,45.05
2018-10-05T11:43:42.581Z,44.86
2018-10-05T11:46:11.264Z,45.05
2018-10-05T11:48:39.598Z,45.09
2018-10-05T11:51:07.951Z,44.54
2018-10-05T11:53:36.870Z,45.86
2018-10-05T11:56:05.203Z,45.22
2018-10-05T11:58:33.592Z,45.78
2018-10-05T12:01:02.066Z,46.04
2018-10-05T12:03:30.451Z,45.98
2018-10-05T12:05:58.817Z,45.39
2018-10-05T12:08:27.159Z,45.42
2018-10-05T12:10:55.519Z,45.29
2018-10-05T12:13:24.405Z,46.26
2018-10-05T12:15:52.755Z,45.75
2018-10-05T12:18:21.139Z,45.55
2018-10-05T12:20:49.497Z,46.00
2018-10-05T12:23:17.857Z,46.00
2018-10-05T12:25:46.204Z,46.03
2018-10-05T12:28:14.538Z,46.44
2018-10-05T12:30:42.878Z,46.10
2018-10-05T12:33:11.222Z,46.54
2018-10-05T12:35:39.572Z,47.10
2018-10-05T12:38:07.901Z,46.77
2018-10-05T12:40:36.232Z,46.86
2018-10-05T12:43:04.546Z,46.66
2018-10-05T12:45:32.886Z,46.77
2018-10-05T12:48:01.533Z,47.16
2018-10-05T12:50:30.023Z,46.76
2018-10-05T12:52:58.504Z,47.26
2018-10-05T12:55:26.860Z,46.50
2018-10-05T12:57:55.208Z,47.09
2018-10-05T13:00:23.560Z,47.32
2018-10-05T13:02:51.940Z,46.99
2018-10-05T13:05:20.299Z,46.59
2018-10-05T13:07:48.611Z,46.85
2018-10-05T13:10:17.133Z,47.03
2018-10-05T13:12:45.476Z,47.36
2018-10-05T13:15:13.819Z,47.05
2018-10-05T13:17:43.034Z,46.98
2018-10-05T13:20:11.523Z,47.27
2018-10-05T13:22:39.893Z,46.58
2018-10-05T13:25:08.226Z,47.28
2018-10-05T13:27:36.836Z,47.09
2018-10-05T13:30:06.025Z,47.52
2018-10-05T13:32:34.340Z,47.71
2018-10-05T13:35:02.793Z,46.73
2018-10-05T13:37:31.273Z,47.17
2018-10-05T13:39:59.529Z,47.27
2018-10-05T13:42:27.941Z,47.22
2018-10-05T13:44:56.266Z,46.89
2018-10-05T13:47:24.653Z,47.11
2018-10-05T13:49:52.988Z,46.90
2018-10-05T13:52:21.445Z,47.41
2018-10-05T13:54:49.797Z,47.63
2018-10-05T13:57:18.305Z,47.56
2018-10-05T13:59:46.661Z,47.99
2018-10-05T14:02:14.999Z,47.57
2018-10-05T14:04:43.340Z,48.28
2018-10-05T14:07:11.745Z,47.51
2018-10-05T14:09:40.081Z,47.63
2018-10-05T14:12:08.412Z,47.33
2018-10-05T14:14:36.754Z,48.37
2018-10-05T14:17:05.102Z,47.99
2018-10-05T14:19:33.448Z,48.11
2018-10-05T14:22:01.791Z,47.68
2018-10-05T14:24:30.115Z,47.77
2018-10-05T14:26:58.491Z,48.25
2018-10-05T14:29:26.823Z,48.47
2018-10-05T14:31:55.173Z,47.90
2018-10-05T14:34:23.518Z,48.72
2018-10-05T14:36:51.862Z,48.47
2018-10-05T14:39:20.211Z,48.93
2018-10-05T14:41:48.676Z,48.80
2018-10-05T14:44:16.906Z,48.07
2018-10-05T14:46:45.273Z,48.82
2018-10-05T14:49:13.585Z,48.92
2018-10-05T14:51:42.001Z,48.46
2018-10-05T14:54:10.510Z,48.18
2018-10-05T14:56:38.865Z,48.53
2018-10-05T14:59:07.240Z,48.52
2018-10-05T15:01:35.787Z,48.75
2018-10-05T15:04:04.133Z,48.66
2018-10-05T15:06:32.495Z,49.04
2018-10-05T15:09:00.921Z,49.00
2018-10-05T15:11:29.255Z,48.72
2018-10-05T15:13:57.619Z,49.24
2018-10-05T15:16:25.961Z,49.11
2018-10-05T15:18:54.406Z,48.62
2018-10-05T15:21:22.773Z,48.57
2018-10-05T15:23:51.076Z,48.45
2018-10-05T15:26:19.440Z,49.33
2018-10-05T15:28:47.791Z,48.60
2018-10-05T15:31:16.151Z,48.63
2018-10-05T15:33:44.504Z,49.38
2018-10-05T15:36:12.926Z,49.23
2018-10-05T15:38:41.318Z,49.04
2018-10-05T15:41:09.638Z,48.91
2018-10-05T15:43:37.966Z,48.95
2018-10-05T15:46:08.594Z,49.33
2018-10-05T15:48:37.233Z,49.59
2018-10-05T15:51:06.026Z,49.24
2018-10-05T15:53:34.818Z,49.78
2018-10-05T15:56:03.613Z,50.10
2018-10-05T15:58:32.126Z,50.47
2018-10-05T16:01:00.436Z,50.27
2018-10-05T16:03:28.773Z,49.71
2018-10-05T16:05:57.139Z,50.31
2018-10-05T16:08:25.437Z,50.63
2018-10-05T16:10:53.780Z,50.78
2018-10-05T16:13:22.847Z,50.90
2018-10-05T16:15:51.179Z,50.14
2018-10-05T16:18:19.597Z,50.83
2018-10-05T16:20:47.912Z,50.38
2018-10-05T16:23:16.229Z,50.61
2018-10-05T16:25:44.583Z,51.33
2018-10-05T16:28:13.012Z,51.20
2018-10-05T16:30:41.433Z,51.94
2018-10-05T16:33:09.776Z,51.30
2018-10-05T16:35:38.123Z,51.36
2018-10-05T16:38:06.605Z,52.02
2018-10-05T16:40:34.946Z,51.90
2018-10-05T16:43:03.323Z,52.12
2018-10-05T16:45:31.672Z,52.10
2018-10-05T16:48:00.050Z,52.19
2018-10-05T16:50:28.399Z,52.98
2018-10-05T16:52:56.819Z,52.52
2018-10-05T16:55:25.175Z,52.81
2018-10-05T16:57:53.536Z,53.45
2018-10-05T17:00:21.873Z,53.57
2018-10-05T17:02:50.227Z,53.03
2018-10-05T17:05:18.555Z,53.56
2018-10-05T17:07:46.947Z,54.13
2018-10-05T17:10:15.335Z,54.63
2018-10-05T17:12:43.815Z,54.39
2018-10-05T17:15:12.188Z,54.75
2018-10-05T17:17:40.599Z,54.54
2018-10-05T17:20:09.082Z,54.72
2018-10-05T17:22:37.383Z,54.60
2018-10-05T17:25:06.013Z,55.14
2018-10-05T17:27:34.452Z,55.59
2018-10-05T17:30:02.907Z,55.27
2018-10-05T17:32:31.252Z,55.15
2018-10-05T17:34:59.661Z,55.55
2018-10-05T17:37:27.962Z,56.14
2018-10-05T17:39:56.318Z,56.51
2018-10-05T17:42:24.660Z,55.40
2018-10-05T17:44:53.008Z,55.68
2018-10-05T17:47:21.398Z,55.35
2018-10-05T17:49:50.447Z,56.25
2018-10-05T17:52:18.827Z,55.91
2018-10-05T17:54:47.246Z,55.90
2018-10-05T17:57:16.222Z,55.70
2018-10-05T17:59:44.587Z,56.49
2018-10-05T18:02:13.056Z,56.15
2018-10-05T18:04:41.311Z,56.43
2018-10-05T18:07:09.688Z,56.77
2018-10-05T18:09:38.021Z,57.03
2018-10-05T18:12:06.550Z,56.95
2018-10-05T18:14:34.948Z,57.40
2018-10-05T18:17:03.313Z,57.68
2018-10-05T18:19:31.689Z,57.48
2018-10-05T18:22:00.037Z,56.99
2018-10-05T18:24:28.405Z,57.25
2018-10-05T18:26:56.712Z,57.28
2018-10-05T18:29:25.064Z,57.44
2018-10-05T18:31:53.413Z,57.80
2018-10-05T18:34:21.763Z,56.99
2018-10-05T18:36:50.095Z,57.87
2018-10-05T18:39:18.445Z,57.35
2018-10-05T18:41:46.825Z,57.70
2018-10-05T18:44:15.218Z,57.79
2018-10-05T18:46:43.568Z,57.49
2018-10-05T18:49:11.901Z,57.99
2018-10-05T18:51:40.444Z,58.16
2018-10-05T18:54:08.783Z,58.19
2018-10-05T18:56:48.433Z,58.89
2018-10-05T18:59:16.801Z,58.33
2018-10-05T19:01:45.153Z,59.58
2018-10-05T19:04:13.507Z,58.04
2018-10-05T19:06:41.882Z,58.58
2018-10-05T19:09:10.254Z,58.99
2018-10-05T19:11:38.870Z,59.30
2018-10-05T19:14:07.431Z,59.31
2018-10-05T19:16:35.809Z,59.83
2018-10-05T19:19:04.320Z,59.12
2018-10-05T19:21:32.686Z,60.01
2018-10-05T19:24:01.049Z,59.17
2018-10-05T19:26:29.523Z,59.35
2018-10-05T19:28:57.789Z,61.07
2018-10-05T19:31:26.158Z,59.99
2018-10-05T19:33:54.486Z,59.80
2018-10-05T19:36:22.854Z,59.98
2018-10-05T19:38:51.231Z,59.77
2018-10-05T19:41:19.605Z,59.99
2018-10-05T19:43:47.928Z,59.26
2018-10-05T19:46:16.424Z,59.79
2018-10-05T19:48:44.859Z,60.35
2018-10-05T19:51:13.232Z,60.70
2018-10-05T19:53:41.647Z,59.81
2018-10-05T19:56:10.253Z,59.36
2018-10-05T19:58:38.591Z,60.22
2018-10-05T20:01:07.067Z,59.66
2018-10-05T20:03:35.408Z,60.11
2018-10-05T20:06:03.770Z,60.48
2018-10-05T20:08:32.171Z,60.07
2018-10-05T20:11:00.592Z,60.15
2018-10-05T20:13:28.952Z,60.90
2018-10-05T20:15:57.322Z,60.53
2018-10-05T20:18:25.995Z,60.58
2018-10-05T20:20:54.426Z,60.72
2018-10-05T20:23:22.773Z,60.79
2018-10-05T20:25:51.140Z,61.00
2018-10-05T20:28:19.478Z,61.06
2018-10-05T20:30:47.901Z,60.88
2018-10-05T20:33:16.249Z,61.36
2018-10-05T20:35:44.591Z,61.07
2018-10-05T20:38:12.989Z,60.91
2018-10-05T20:40:41.367Z,61.32
2018-10-05T20:43:09.933Z,61.27
2018-10-05T20:45:38.301Z,61.45
2018-10-05T20:48:06.693Z,61.84
2018-10-05T20:50:35.000Z,61.55
2018-10-05T20:53:03.320Z,61.72
2018-10-05T20:55:31.808Z,61.54
2018-10-05T20:58:00.175Z,61.32
2018-10-05T21:00:28.529Z,62.02
2018-10-05T21:02:56.931Z,63.03
2018-10-05T21:05:25.428Z,62.92
2018-10-05T21:07:53.790Z,62.12
2018-10-05T21:10:22.228Z,63.89
2018-10-05T21:12:50.601Z,62.40
2018-10-05T21:15:19.368Z,62.32
2018-10-05T21:17:47.793Z,62.93
2018-10-05T21:20:16.224Z,62.53
2018-10-05T21:22:44.648Z,63.58
2018-10-05T21:25:13.012Z,62.25
2018-10-05T21:27:41.444Z,62.25
2018-10-05T21:30:09.852Z,64.16
2018-10-05T21:32:38.206Z,62.76
2018-10-05T21:35:06.572Z,63.27
2018-10-05T21:37:34.940Z,63.00
2018-10-05T21:40:03.338Z,63.58
2018-10-05T21:42:31.700Z,63.70
2018-10-05T21:45:00.153Z,63.42
2018-10-05T21:47:28.462Z,64.23
2018-10-05T21:49:56.874Z,64.18
2018-10-05T21:52:25.262Z,64.03
2018-10-05T21:54:53.687Z,63.42
2018-10-05T21:57:22.042Z,63.77
2018-10-05T21:59:50.419Z,63.65
2018-10-05T22:02:18.803Z,63.65
2018-10-05T22:04:47.208Z,63.84
2018-10-05T22:07:15.596Z,64.37
2018-10-05T22:09:43.932Z,64.32
2018-10-05T22:12:12.312Z,65.08
2018-10-05T22:14:40.682Z,63.88
2018-10-05T22:17:09.073Z,64.87
2018-10-05T22:19:37.675Z,64.59
2018-10-05T22:22:05.941Z,63.97
2018-10-05T22:24:34.309Z,64.89
2018-10-05T22:27:02.688Z,64.91
2018-10-05T22:29:31.069Z,65.67
2018-10-05T22:31:59.606Z,66.25
2018-10-05T22:34:27.980Z,65.47
2018-10-05T22:36:56.337Z,65.33
2018-10-05T22:39:24.731Z,65.15
2018-10-05T22:41:53.234Z,65.52
2018-10-05T22:44:21.579Z,65.70
2018-10-05T22:46:49.960Z,65.53
2018-10-05T22:49:18.292Z,66.10
2018-10-05T22:51:47.672Z,65.91
2018-10-05T22:54:15.999Z,66.15
2018-10-05T22:56:44.433Z,65.53
2018-10-05T22:59:12.812Z,65.39
2018-10-05T23:01:41.241Z,65.55
2018-10-05T23:04:09.689Z,65.48
2018-10-05T23:06:38.085Z,66.19
2018-10-05T23:09:07.965Z,65.12
2018-10-05T23:11:36.583Z,65.53
2018-10-05T23:14:04.992Z,65.92
2018-10-05T23:16:33.534Z,65.31
2018-10-05T23:19:02.030Z,65.70
2018-10-05T23:21:30.458Z,66.51
2018-10-05T23:23:58.850Z,65.71
2018-10-05T23:26:27.197Z,65.08
2018-10-05T23:28:55.610Z,65.21
2018-10-05T23:31:23.956Z,65.48
2018-10-05T23:33:52.302Z,65.42
2018-10-05T23:36:20.656Z,65.65
2018-10-05T23:38:48.990Z,65.70
2018-10-05T23:41:17.345Z,65.62
2018-10-05T23:43:46.020Z,65.76
2018-10-05T23:46:14.434Z,65.99
2018-10-05T23:48:42.779Z,65.67
2018-10-05T23:51:11.228Z,66.10
2018-10-05T23:53:39.574Z,66.91
2018-10-05T23:56:07.916Z,66.47
2018-10-05T23:58:36.301Z,66.17
